createdAt,value
2022-10-25T00:00:15.876Z,973.99
2022-10-25T00:01:15.964Z,973.97
2022-10-25T00:02:16.055Z,973.95
2022-10-25T00:03:15.848Z,974.02
2022-10-25T00:04:15.880Z,974.00
2022-10-25T00:05:16.059Z,973.98
2022-10-25T00:06:15.796Z,973.90
2022-10-25T00:07:15.816Z,973.88
2022-10-25T00:08:15.787Z,973.91
2022-10-25T00:09:15.775Z,973.96
2022-10-25T00:10:15.926Z,974.08
2022-10-25T00:11:15.735Z,974.17
2022-10-25T00:12:15.747Z,974.10
2022-10-25T00:13:15.707Z,974.11
2022-10-25T00:14:15.694Z,974.13
2022-10-25T00:15:15.893Z,974.11
2022-10-25T00:16:15.663Z,974.04
2022-10-25T00:17:15.678Z,974.00
2022-10-25T00:18:15.642Z,974.10
2022-10-25T00:19:15.635Z,974.10
2022-10-25T00:20:15.791Z,974.14
2022-10-25T00:21:15.604Z,974.03
2022-10-25T00:22:15.604Z,974.03
2022-10-25T00:23:15.570Z,974.04
2022-10-25T00:24:15.572Z,974.06
2022-10-25T00:25:15.728Z,974.04
2022-10-25T00:26:15.536Z,974.08
2022-10-25T00:27:15.519Z,974.09
2022-10-25T00:28:15.542Z,974.03
2022-10-25T00:29:15.526Z,974.08
2022-10-25T00:30:15.729Z,974.11
2022-10-25T00:31:15.470Z,974.03
2022-10-25T00:32:15.452Z,973.96
2022-10-25T00:33:15.437Z,973.93
2022-10-25T00:34:15.434Z,973.94
2022-10-25T00:35:15.406Z,974.05
2022-10-25T00:36:15.616Z,974.04
2022-10-25T00:37:15.406Z,974.08
2022-10-25T00:38:15.373Z,974.15
2022-10-25T00:39:15.354Z,974.19
2022-10-25T00:40:15.344Z,974.15
2022-10-25T00:41:15.332Z,974.17
2022-10-25T00:42:15.621Z,974.20
2022-10-25T00:43:15.308Z,974.19
2022-10-25T00:44:15.293Z,974.19
2022-10-25T00:45:15.282Z,974.21
2022-10-25T00:46:15.283Z,974.17
2022-10-25T00:47:15.257Z,974.22
2022-10-25T00:48:15.448Z,974.19
2022-10-25T00:49:15.227Z,974.15
2022-10-25T00:50:15.217Z,974.15
2022-10-25T00:51:15.194Z,974.08
2022-10-25T00:52:15.184Z,974.10
2022-10-25T00:53:15.169Z,974.11
2022-10-25T00:54:15.388Z,974.12
2022-10-25T00:55:15.155Z,974.15
2022-10-25T00:56:15.137Z,974.07
2022-10-25T00:57:15.143Z,974.01
2022-10-25T00:58:15.114Z,974.04
2022-10-25T00:59:15.101Z,973.97
2022-10-25T01:00:15.299Z,973.99
2022-10-25T01:01:15.206Z,974.04
2022-10-25T01:02:15.257Z,974.05
2022-10-25T01:03:15.075Z,974.01
2022-10-25T01:04:15.044Z,974.04
2022-10-25T01:05:15.078Z,974.03
2022-10-25T01:06:15.199Z,974.01
2022-10-25T01:07:15.002Z,973.98
2022-10-25T01:08:15.000Z,973.91
2022-10-25T01:09:14.993Z,973.89
2022-10-25T01:10:14.950Z,973.97
2022-10-25T01:11:14.944Z,973.95
2022-10-25T01:12:36.147Z,973.99
2022-10-25T01:13:15.141Z,974.02
2022-10-25T01:14:14.908Z,974.04
2022-10-25T01:15:14.876Z,974.03
2022-10-25T01:16:14.857Z,974.04
2022-10-25T01:17:14.859Z,974.00
2022-10-25T01:18:15.075Z,974.00
2022-10-25T01:19:14.825Z,974.03
2022-10-25T01:20:14.824Z,973.96
2022-10-25T01:21:14.805Z,973.97
2022-10-25T01:22:14.783Z,973.92
2022-10-25T01:23:15.013Z,973.94
2022-10-25T01:24:14.752Z,973.90
2022-10-25T01:25:14.750Z,973.89
2022-10-25T01:26:14.725Z,973.90
2022-10-25T01:27:14.723Z,973.89
2022-10-25T01:28:14.959Z,973.92
2022-10-25T01:29:14.698Z,973.96
2022-10-25T01:30:14.686Z,973.99
2022-10-25T01:31:14.674Z,973.98
2022-10-25T01:32:14.650Z,973.94
2022-10-25T01:33:14.888Z,973.93
2022-10-25T01:34:14.629Z,973.89
2022-10-25T01:35:14.616Z,973.87
2022-10-25T01:37:14.587Z,973.83
2022-10-25T01:38:14.826Z,973.85
2022-10-25T01:39:14.559Z,973.76
2022-10-25T01:40:14.547Z,973.82
2022-10-25T01:41:14.535Z,973.81
2022-10-25T01:42:14.519Z,973.80
2022-10-25T01:43:14.783Z,973.77
2022-10-25T01:44:14.493Z,973.78
2022-10-25T01:45:14.486Z,973.77
2022-10-25T01:46:14.469Z,973.79
2022-10-25T01:47:14.453Z,973.77
2022-10-25T01:48:14.683Z,973.76
2022-10-25T01:49:14.449Z,973.75
2022-10-25T01:50:14.437Z,973.73
2022-10-25T01:51:14.420Z,973.73
2022-10-25T01:52:14.391Z,973.69
2022-10-25T01:53:14.611Z,973.72
2022-10-25T01:54:14.361Z,973.76
2022-10-25T01:55:14.362Z,973.77
2022-10-25T01:56:14.330Z,973.80
2022-10-25T01:57:14.322Z,973.83
2022-10-25T01:58:14.329Z,973.83
2022-10-25T01:59:14.298Z,973.88
2022-10-25T02:00:14.275Z,973.86
2022-10-25T02:01:14.418Z,973.86
2022-10-25T02:02:14.256Z,973.83
2022-10-25T02:03:14.483Z,973.78
2022-10-25T02:04:14.238Z,973.82
2022-10-25T02:05:14.225Z,973.82
2022-10-25T02:06:14.204Z,973.81
2022-10-25T02:07:14.215Z,973.80
2022-10-25T02:08:14.412Z,973.80
2022-10-25T02:09:14.165Z,973.79
2022-10-25T02:10:14.154Z,973.77
2022-10-25T02:11:14.141Z,973.76
2022-10-25T02:12:14.124Z,973.76
2022-10-25T02:13:14.354Z,973.70
2022-10-25T02:14:14.100Z,973.71
2022-10-25T02:15:14.098Z,973.72
2022-10-25T02:16:14.069Z,973.76
2022-10-25T02:17:14.057Z,973.72
2022-10-25T02:18:14.289Z,973.71
2022-10-25T02:19:14.037Z,973.70
2022-10-25T02:20:14.019Z,973.71
2022-10-25T02:21:14.007Z,973.75
2022-10-25T02:22:14.014Z,973.74
2022-10-25T02:23:14.218Z,973.66
2022-10-25T02:24:13.976Z,973.71
2022-10-25T02:25:13.963Z,973.69
2022-10-25T02:26:13.936Z,973.70
2022-10-25T02:27:13.937Z,973.72
2022-10-25T02:28:14.148Z,973.71
2022-10-25T02:29:13.903Z,973.71
2022-10-25T02:30:13.890Z,973.72
2022-10-25T02:31:13.873Z,973.75
2022-10-25T02:32:14.093Z,973.74
2022-10-25T02:33:13.844Z,973.81
2022-10-25T02:34:13.832Z,973.81
2022-10-25T02:36:13.814Z,973.88
2022-10-25T02:37:14.036Z,973.83
2022-10-25T02:38:13.780Z,973.93
2022-10-25T02:39:13.761Z,973.89
2022-10-25T02:40:13.752Z,973.94
2022-10-25T02:41:13.742Z,973.90
2022-10-25T02:42:13.959Z,973.89
2022-10-25T02:43:13.719Z,973.92
2022-10-25T02:44:13.700Z,973.93
2022-10-25T02:45:13.701Z,973.91
2022-10-25T02:46:13.674Z,973.99
2022-10-25T02:47:13.908Z,973.95
2022-10-25T02:48:13.656Z,973.95
2022-10-25T02:49:13.634Z,973.91
2022-10-25T02:50:13.634Z,973.97
2022-10-25T02:51:13.606Z,973.99
2022-10-25T02:52:13.846Z,973.96
2022-10-25T02:53:13.584Z,973.94
2022-10-25T02:54:13.566Z,973.98
2022-10-25T02:55:13.567Z,973.95
2022-10-25T02:56:13.542Z,973.98
2022-10-25T02:57:13.782Z,973.95
2022-10-25T02:58:13.522Z,973.94
2022-10-25T02:59:13.522Z,973.95
2022-10-25T03:01:13.593Z,973.94
2022-10-25T03:02:13.713Z,973.95
2022-10-25T03:03:13.480Z,973.96
2022-10-25T03:04:13.435Z,973.97
2022-10-25T03:05:13.428Z,974.05
2022-10-25T03:06:13.409Z,974.01
2022-10-25T03:07:13.638Z,974.02
2022-10-25T03:08:13.407Z,974.01
2022-10-25T03:09:13.378Z,974.02
2022-10-25T03:10:13.362Z,974.09
2022-10-25T03:11:13.359Z,974.07
2022-10-25T03:12:13.575Z,974.06
2022-10-25T03:13:13.326Z,974.07
2022-10-25T03:14:14.255Z,974.09
2022-10-25T03:15:13.295Z,974.10
2022-10-25T03:16:13.283Z,974.10
2022-10-25T03:17:13.514Z,974.12
2022-10-25T03:18:13.252Z,974.10
2022-10-25T03:19:13.283Z,974.14
2022-10-25T03:20:13.224Z,974.13
2022-10-25T03:21:13.301Z,974.17
2022-10-25T03:22:13.466Z,974.16
2022-10-25T03:23:13.191Z,974.17
2022-10-25T03:24:13.184Z,974.15
2022-10-25T03:25:13.171Z,974.16
2022-10-25T03:26:13.152Z,974.15
2022-10-25T03:27:13.380Z,974.22
2022-10-25T03:28:13.136Z,974.16
2022-10-25T03:29:13.118Z,974.21
2022-10-25T03:30:13.110Z,974.18
2022-10-25T03:31:13.096Z,974.17
2022-10-25T03:32:13.313Z,974.21
2022-10-25T03:33:13.076Z,974.24
2022-10-25T03:34:13.048Z,974.24
2022-10-25T03:35:13.039Z,974.19
2022-10-25T03:36:13.033Z,974.17
2022-10-25T03:37:13.253Z,974.25
2022-10-25T03:38:13.005Z,974.28
2022-10-25T03:39:12.993Z,974.20
2022-10-25T03:40:12.973Z,974.26
2022-10-25T03:41:12.964Z,974.25
2022-10-25T03:42:13.475Z,974.22
2022-10-25T03:43:12.971Z,974.28
2022-10-25T03:44:12.929Z,974.30
2022-10-25T03:45:12.917Z,974.31
2022-10-25T03:46:12.897Z,974.24
2022-10-25T03:47:13.121Z,974.25
2022-10-25T03:48:12.870Z,974.25
2022-10-25T03:49:12.861Z,974.33
2022-10-25T03:50:12.850Z,974.35
2022-10-25T03:51:12.838Z,974.42
2022-10-25T03:52:12.861Z,974.39
2022-10-25T03:53:12.814Z,974.41
2022-10-25T03:54:12.795Z,974.40
2022-10-25T03:55:12.785Z,974.37
2022-10-25T03:56:12.766Z,974.36
2022-10-25T03:57:13.006Z,974.36
2022-10-25T03:58:13.298Z,974.33
2022-10-25T03:59:12.735Z,974.32
2022-10-25T04:00:12.714Z,974.32
2022-10-25T04:01:12.865Z,974.32
2022-10-25T04:02:12.986Z,974.32
2022-10-25T04:03:12.684Z,974.31
2022-10-25T04:04:12.664Z,974.33
2022-10-25T04:05:12.655Z,974.28
2022-10-25T04:06:12.640Z,974.25
2022-10-25T04:07:13.692Z,974.27
2022-10-25T04:08:12.613Z,974.21
2022-10-25T04:09:12.600Z,974.25
2022-10-25T04:10:12.596Z,974.19
2022-10-25T04:11:12.580Z,974.25
2022-10-25T04:12:12.829Z,974.24
2022-10-25T04:13:12.550Z,974.23
2022-10-25T04:14:12.536Z,974.21
2022-10-25T04:15:12.532Z,974.20
2022-10-25T04:16:14.771Z,974.17
2022-10-25T04:17:13.735Z,974.16
2022-10-25T04:18:12.488Z,974.15
2022-10-25T04:19:12.478Z,974.11
2022-10-25T04:20:12.498Z,974.12
2022-10-25T04:21:12.456Z,974.08
2022-10-25T04:22:12.677Z,974.07
2022-10-25T04:23:12.431Z,974.05
2022-10-25T04:24:12.428Z,974.09
2022-10-25T04:25:12.396Z,974.14
2022-10-25T04:26:12.387Z,974.11
2022-10-25T04:27:12.409Z,974.12
2022-10-25T04:28:12.354Z,974.16
2022-10-25T04:29:12.423Z,974.15
2022-10-25T04:30:12.332Z,974.19
2022-10-25T04:31:12.327Z,974.15
2022-10-25T04:32:12.589Z,974.20
2022-10-25T04:33:12.296Z,974.18
2022-10-25T04:34:12.282Z,974.19
2022-10-25T04:35:12.283Z,974.14
2022-10-25T04:36:12.256Z,974.14
2022-10-25T04:37:12.479Z,974.12
2022-10-25T04:38:12.228Z,974.12
2022-10-25T04:39:12.219Z,974.11
2022-10-25T04:40:12.197Z,974.14
2022-10-25T04:41:12.204Z,974.15
2022-10-25T04:42:12.425Z,974.20
2022-10-25T04:43:12.166Z,974.20
2022-10-25T04:44:12.155Z,974.24
2022-10-25T04:45:12.140Z,974.26
2022-10-25T04:46:12.125Z,974.26
2022-10-25T04:47:12.356Z,974.23
2022-10-25T04:48:12.094Z,974.22
2022-10-25T04:49:12.092Z,974.21
2022-10-25T04:50:12.072Z,974.23
2022-10-25T04:51:12.068Z,974.18
2022-10-25T04:52:12.311Z,974.20
2022-10-25T04:53:12.038Z,974.17
2022-10-25T04:54:12.013Z,974.22
2022-10-25T04:55:12.011Z,974.17
2022-10-25T04:56:12.019Z,974.14
2022-10-25T04:57:12.219Z,974.16
2022-10-25T04:58:11.978Z,974.15
2022-10-25T04:59:11.958Z,974.16
2022-10-25T05:00:11.960Z,974.22
2022-10-25T05:01:12.017Z,974.22
2022-10-25T05:02:12.158Z,974.26
2022-10-25T05:03:13.325Z,974.26
2022-10-25T05:04:11.926Z,974.32
2022-10-25T05:05:11.932Z,974.31
2022-10-25T05:06:11.873Z,974.32
2022-10-25T05:07:12.093Z,974.28
2022-10-25T05:08:11.844Z,974.27
2022-10-25T05:09:11.832Z,974.24
2022-10-25T05:10:11.815Z,974.25
2022-10-25T05:11:11.810Z,974.27
2022-10-25T05:12:12.023Z,974.31
2022-10-25T05:13:11.785Z,974.31
2022-10-25T05:14:11.752Z,974.32
2022-10-25T05:15:11.759Z,974.34
2022-10-25T05:16:11.774Z,974.33
2022-10-25T05:17:11.959Z,974.31
2022-10-25T05:18:11.711Z,974.27
2022-10-25T05:19:11.708Z,974.28
2022-10-25T05:20:11.701Z,974.21
2022-10-25T05:21:11.678Z,974.29
2022-10-25T05:22:11.900Z,974.30
2022-10-25T05:23:11.662Z,974.36
2022-10-25T05:24:11.639Z,974.35
2022-10-25T05:25:11.618Z,974.38
2022-10-25T05:26:11.609Z,974.36
2022-10-25T05:27:11.826Z,974.37
2022-10-25T05:28:11.578Z,974.40
2022-10-25T05:29:11.567Z,974.38
2022-10-25T05:30:11.564Z,974.42
2022-10-25T05:31:11.558Z,974.41
2022-10-25T05:32:11.786Z,974.37
2022-10-25T05:33:11.463Z,974.36
2022-10-25T05:34:11.510Z,974.35
2022-10-25T05:35:11.493Z,974.37
2022-10-25T05:36:11.435Z,974.42
2022-10-25T05:37:11.653Z,974.40
2022-10-25T05:38:11.462Z,974.36
2022-10-25T05:39:11.389Z,974.43
2022-10-25T05:40:11.379Z,974.44
2022-10-25T05:41:11.382Z,974.49
2022-10-25T05:42:11.648Z,974.50
2022-10-25T05:43:11.343Z,974.56
2022-10-25T05:44:11.327Z,974.50
2022-10-25T05:45:11.313Z,974.53
2022-10-25T05:46:11.299Z,974.54
2022-10-25T05:47:11.525Z,974.57
2022-10-25T05:48:11.299Z,974.56
2022-10-25T05:49:11.254Z,974.61
2022-10-25T05:50:11.244Z,974.59
2022-10-25T05:51:28.822Z,974.58
2022-10-25T05:52:12.222Z,974.59
2022-10-25T05:53:11.206Z,974.55
2022-10-25T05:54:11.194Z,974.59
2022-10-25T05:55:11.183Z,974.59
2022-10-25T05:56:11.172Z,974.55
2022-10-25T05:57:11.449Z,974.55
2022-10-25T05:58:11.143Z,974.57
2022-10-25T05:59:11.148Z,974.59
2022-10-25T06:00:11.122Z,974.64
2022-10-25T06:01:11.232Z,974.68
2022-10-25T06:02:11.488Z,974.70
2022-10-25T06:03:11.076Z,974.71
2022-10-25T06:04:11.069Z,974.72
2022-10-25T06:05:11.049Z,974.69
2022-10-25T06:06:11.040Z,974.74
2022-10-25T06:07:11.281Z,974.71
2022-10-25T06:08:11.024Z,974.71
2022-10-25T06:09:10.997Z,974.70
2022-10-25T06:10:11.060Z,974.70
2022-10-25T06:11:10.976Z,974.67
2022-10-25T06:12:11.234Z,974.71
2022-10-25T06:13:10.953Z,974.66
2022-10-25T06:14:10.951Z,974.67
2022-10-25T06:15:10.922Z,974.75
2022-10-25T06:16:11.143Z,974.70
2022-10-25T06:17:10.897Z,974.70
2022-10-25T06:18:10.897Z,974.73
2022-10-25T06:19:10.866Z,974.72
2022-10-25T06:20:10.863Z,974.72
2022-10-25T06:21:10.854Z,974.70
2022-10-25T06:22:11.073Z,974.68
2022-10-25T06:23:11.238Z,974.70
2022-10-25T06:24:10.801Z,974.78
2022-10-25T06:25:10.798Z,974.74
2022-10-25T06:26:10.791Z,974.83
2022-10-25T06:27:11.009Z,974.87
2022-10-25T06:28:10.764Z,974.87
2022-10-25T06:29:10.739Z,974.89
2022-10-25T06:30:10.736Z,974.85
2022-10-25T06:31:10.717Z,974.91
2022-10-25T06:32:10.945Z,974.93
2022-10-25T06:33:10.685Z,974.92
2022-10-25T06:34:10.676Z,974.89
2022-10-25T06:35:10.662Z,974.96
2022-10-25T06:36:10.647Z,974.97
2022-10-25T06:37:10.885Z,974.98
2022-10-25T06:38:10.625Z,974.98
2022-10-25T06:39:10.611Z,975.01
2022-10-25T06:40:10.630Z,975.03
2022-10-25T06:41:10.595Z,975.07
2022-10-25T06:42:10.801Z,975.05
2022-10-25T06:43:10.562Z,975.05
2022-10-25T06:44:10.572Z,975.06
2022-10-25T06:45:10.533Z,975.04
2022-10-25T06:46:10.523Z,974.99
2022-10-25T06:47:17.300Z,975.02
2022-10-25T06:48:11.498Z,974.95
2022-10-25T06:49:10.481Z,974.94
2022-10-25T06:50:10.487Z,975.01
2022-10-25T06:51:10.469Z,975.05
2022-10-25T06:52:10.679Z,975.06
2022-10-25T06:53:10.439Z,975.10
2022-10-25T06:54:10.418Z,975.07
2022-10-25T06:55:10.407Z,975.07
2022-10-25T06:56:14.207Z,975.09
2022-10-25T06:57:10.617Z,975.09
2022-10-25T06:58:10.389Z,975.16
2022-10-25T06:59:10.355Z,975.15
2022-10-25T07:00:10.345Z,975.13
2022-10-25T07:01:10.413Z,975.14
2022-10-25T07:02:10.650Z,975.18
2022-10-25T07:03:10.315Z,975.13
2022-10-25T07:04:10.292Z,975.14
2022-10-25T07:05:10.283Z,975.13
2022-10-25T07:06:10.280Z,975.15
2022-10-25T07:07:10.481Z,975.11
2022-10-25T07:08:10.247Z,975.17
2022-10-25T07:09:10.239Z,975.15
2022-10-25T07:10:10.212Z,975.11
2022-10-25T07:11:10.233Z,975.16
2022-10-25T07:12:12.791Z,975.19
2022-10-25T07:13:10.176Z,975.23
2022-10-25T07:14:10.169Z,975.22
2022-10-25T07:15:10.203Z,975.23
2022-10-25T07:16:10.138Z,975.24
2022-10-25T07:17:10.357Z,975.21
2022-10-25T07:18:10.108Z,975.19
2022-10-25T07:19:10.095Z,975.21
2022-10-25T07:20:10.087Z,975.23
2022-10-25T07:21:10.093Z,975.22
2022-10-25T07:22:10.302Z,975.20
2022-10-25T07:23:10.046Z,975.31
2022-10-25T07:24:10.038Z,975.25
2022-10-25T07:25:10.036Z,975.31
2022-10-25T07:26:10.006Z,975.31
2022-10-25T07:27:10.233Z,975.32
2022-10-25T07:28:10.008Z,975.31
2022-10-25T07:29:09.971Z,975.30
2022-10-25T07:30:09.978Z,975.30
2022-10-25T07:31:09.964Z,975.28
2022-10-25T07:32:10.168Z,975.26
2022-10-25T07:33:09.915Z,975.25
2022-10-25T07:34:09.932Z,975.28
2022-10-25T07:35:09.887Z,975.26
2022-10-25T07:36:11.862Z,975.31
2022-10-25T07:37:10.199Z,975.23
2022-10-25T07:38:09.851Z,975.29
2022-10-25T07:39:09.841Z,975.34
2022-10-25T07:40:09.862Z,975.31
2022-10-25T07:41:09.856Z,975.36
2022-10-25T07:42:10.039Z,975.36
2022-10-25T07:43:09.786Z,975.38
2022-10-25T07:44:14.609Z,975.36
2022-10-25T07:45:10.754Z,975.45
2022-10-25T07:46:09.749Z,975.41
2022-10-25T07:47:09.973Z,975.47
2022-10-25T07:48:09.715Z,975.45
2022-10-25T07:49:09.712Z,975.47
2022-10-25T07:50:09.721Z,975.47
2022-10-25T07:51:09.691Z,975.39
2022-10-25T07:52:09.903Z,975.48
2022-10-25T07:53:09.650Z,975.47
2022-10-25T07:54:09.650Z,975.47
2022-10-25T07:55:09.621Z,975.44
2022-10-25T07:56:09.621Z,975.47
2022-10-25T07:57:09.831Z,975.50
2022-10-25T07:58:09.580Z,975.50
2022-10-25T07:59:09.576Z,975.44
2022-10-25T08:00:09.562Z,975.43
2022-10-25T08:01:09.580Z,975.43
2022-10-25T08:02:09.780Z,975.45
2022-10-25T08:03:09.613Z,975.45
2022-10-25T08:04:09.582Z,975.43
2022-10-25T08:05:10.498Z,975.40
2022-10-25T08:06:09.553Z,975.42
2022-10-25T08:07:09.495Z,975.43
2022-10-25T08:08:09.495Z,975.44
2022-10-25T08:09:14.445Z,975.40
2022-10-25T08:10:10.479Z,975.36
2022-10-25T08:11:09.475Z,975.36
2022-10-25T08:12:09.642Z,975.35
2022-10-25T08:13:09.385Z,975.36
2022-10-25T08:14:09.393Z,975.32
2022-10-25T08:15:09.368Z,975.35
2022-10-25T08:16:09.352Z,975.35
2022-10-25T08:17:09.583Z,975.34
2022-10-25T08:18:09.328Z,975.39
2022-10-25T08:19:09.385Z,975.36
2022-10-25T08:20:09.302Z,975.36
2022-10-25T08:21:09.315Z,975.35
2022-10-25T08:22:09.507Z,975.35
2022-10-25T08:23:09.273Z,975.33
2022-10-25T08:24:09.391Z,975.34
2022-10-25T08:25:09.225Z,975.28
2022-10-25T08:26:09.459Z,975.28
2022-10-25T08:27:09.283Z,975.31
2022-10-25T08:28:09.242Z,975.27
2022-10-25T08:29:10.234Z,975.23
2022-10-25T08:30:09.226Z,975.25
2022-10-25T08:31:09.387Z,975.28
2022-10-25T08:32:09.134Z,975.26
2022-10-25T08:33:11.584Z,975.22
2022-10-25T08:35:10.099Z,975.22
2022-10-25T08:36:09.326Z,975.18
2022-10-25T08:37:09.064Z,975.19
2022-10-25T08:38:09.053Z,975.16
2022-10-25T08:39:09.068Z,975.15
2022-10-25T08:40:09.072Z,975.15
2022-10-25T08:41:09.466Z,975.12
2022-10-25T08:42:09.001Z,975.09
2022-10-25T08:43:09.153Z,975.10
2022-10-25T08:44:08.992Z,975.12
2022-10-25T08:45:09.007Z,975.10
2022-10-25T08:46:08.957Z,975.13
2022-10-25T08:47:09.181Z,975.11
2022-10-25T08:48:08.971Z,975.12
2022-10-25T08:49:08.916Z,975.12
2022-10-25T08:50:08.897Z,975.05
2022-10-25T08:51:08.985Z,975.12
2022-10-25T08:52:10.496Z,975.16
2022-10-25T08:53:08.892Z,975.11
2022-10-25T08:54:08.846Z,975.14
2022-10-25T08:55:08.897Z,975.11
2022-10-25T08:56:16.684Z,975.10
2022-10-25T08:57:15.425Z,975.11
2022-10-25T08:58:09.794Z,975.06
2022-10-25T08:59:08.781Z,975.05
2022-10-25T09:00:08.770Z,975.07
2022-10-25T09:01:08.906Z,975.07
2022-10-25T09:02:09.030Z,975.08
2022-10-25T09:03:11.429Z,975.07
2022-10-25T09:04:09.719Z,975.05
2022-10-25T09:05:08.701Z,975.07
2022-10-25T09:06:08.689Z,975.01
2022-10-25T09:07:08.985Z,974.99
2022-10-25T09:08:08.671Z,975.00
2022-10-25T09:09:08.708Z,975.04
2022-10-25T09:10:08.640Z,975.04
2022-10-25T09:11:08.630Z,975.04
2022-10-25T09:12:08.658Z,975.02
2022-10-25T09:13:10.900Z,975.06
2022-10-25T09:14:08.587Z,975.07
2022-10-25T09:15:08.577Z,975.05
2022-10-25T09:16:08.615Z,975.05
2022-10-25T09:17:08.546Z,975.02
2022-10-25T09:18:08.775Z,975.05
2022-10-25T09:19:08.523Z,975.04
2022-10-25T09:20:08.516Z,975.04
2022-10-25T09:21:13.450Z,975.07
2022-10-25T09:22:09.482Z,975.10
2022-10-25T09:23:08.721Z,975.06
2022-10-25T09:24:08.482Z,975.10
2022-10-25T09:25:08.475Z,975.09
2022-10-25T09:26:08.433Z,975.07
2022-10-25T09:27:08.421Z,975.06
2022-10-25T09:28:08.641Z,975.00
2022-10-25T09:29:08.410Z,975.02
2022-10-25T09:30:08.494Z,974.96
2022-10-25T09:31:08.378Z,974.97
2022-10-25T09:32:08.351Z,974.99
2022-10-25T09:33:08.607Z,974.93
2022-10-25T09:34:08.368Z,974.97
2022-10-25T09:35:08.329Z,974.95
2022-10-25T09:36:08.299Z,974.97
2022-10-25T09:37:08.289Z,974.92
2022-10-25T09:38:08.592Z,974.95
2022-10-25T09:39:09.506Z,974.94
2022-10-25T09:40:08.239Z,974.93
2022-10-25T09:41:08.285Z,974.94
2022-10-25T09:42:08.244Z,974.90
2022-10-25T09:43:08.553Z,974.93
2022-10-25T09:44:08.251Z,974.90
2022-10-25T09:45:08.182Z,974.91
2022-10-25T09:46:08.165Z,974.90
2022-10-25T09:47:08.154Z,974.90
2022-10-25T09:48:08.414Z,974.91
2022-10-25T09:49:08.269Z,974.92
2022-10-25T09:50:08.113Z,974.93
2022-10-25T09:51:08.196Z,974.89
2022-10-25T09:52:08.192Z,974.91
2022-10-25T09:53:08.321Z,974.90
2022-10-25T09:54:08.061Z,974.91
2022-10-25T09:55:08.050Z,974.88
2022-10-25T09:56:08.028Z,974.94
2022-10-25T09:57:08.026Z,974.93
2022-10-25T09:58:08.319Z,974.93
2022-10-25T09:59:08.018Z,974.93
2022-10-25T10:00:08.094Z,974.92
2022-10-25T10:01:08.144Z,974.97
2022-10-25T10:02:08.046Z,974.95
2022-10-25T10:04:07.928Z,974.96
2022-10-25T10:05:07.970Z,974.97
2022-10-25T10:06:07.904Z,974.99
2022-10-25T10:07:08.036Z,974.97
2022-10-25T10:08:08.116Z,974.94
2022-10-25T10:09:07.887Z,974.93
2022-10-25T10:10:07.905Z,974.96
2022-10-25T10:11:07.885Z,974.94
2022-10-25T10:12:07.823Z,974.94
2022-10-25T10:13:08.057Z,974.94
2022-10-25T10:14:09.964Z,974.91
2022-10-25T10:15:07.828Z,974.93
2022-10-25T10:16:07.826Z,974.91
2022-10-25T10:17:14.901Z,974.93
2022-10-25T10:18:08.011Z,974.93
2022-10-25T10:19:07.743Z,974.94
2022-10-25T10:20:07.779Z,974.90
2022-10-25T10:21:07.725Z,974.88
2022-10-25T10:22:07.693Z,974.87
2022-10-25T10:23:08.749Z,974.90
2022-10-25T10:24:07.677Z,974.84
2022-10-25T10:25:07.662Z,974.85
2022-10-25T10:26:07.649Z,974.87
2022-10-25T10:27:07.672Z,974.84
2022-10-25T10:28:07.853Z,974.80
2022-10-25T10:29:08.951Z,974.84
2022-10-25T10:30:07.594Z,974.82
2022-10-25T10:31:07.590Z,974.77
2022-10-25T10:32:07.568Z,974.77
2022-10-25T10:33:07.802Z,974.77
2022-10-25T10:34:07.599Z,974.78
2022-10-25T10:35:07.607Z,974.77
2022-10-25T10:36:07.516Z,974.76
2022-10-25T10:37:08.444Z,974.73
2022-10-25T10:38:07.732Z,974.70
2022-10-25T10:39:07.501Z,974.74
2022-10-25T10:40:07.456Z,974.76
2022-10-25T10:41:07.456Z,974.77
2022-10-25T10:42:09.668Z,974.73
2022-10-25T10:43:07.668Z,974.73
2022-10-25T10:44:07.424Z,974.73
2022-10-25T10:45:07.414Z,974.68
2022-10-25T10:46:07.392Z,974.67
2022-10-25T10:47:07.390Z,974.66
2022-10-25T10:48:07.604Z,974.62
2022-10-25T10:49:07.345Z,974.65
2022-10-25T10:50:07.323Z,974.63
2022-10-25T10:51:15.408Z,974.63
2022-10-25T10:52:08.324Z,974.61
2022-10-25T10:53:07.544Z,974.62
2022-10-25T10:54:07.386Z,974.66
2022-10-25T10:55:07.261Z,974.63
2022-10-25T10:56:07.251Z,974.60
2022-10-25T10:57:07.240Z,974.64
2022-10-25T10:58:07.502Z,974.62
2022-10-25T10:59:07.288Z,974.60
2022-10-25T11:00:07.201Z,974.62
2022-10-25T11:01:07.446Z,974.57
2022-10-25T11:02:07.339Z,974.59
2022-10-25T11:03:07.407Z,974.60
2022-10-25T11:04:07.154Z,974.58
2022-10-25T11:05:07.135Z,974.62
2022-10-25T11:06:07.121Z,974.61
2022-10-25T11:07:07.116Z,974.57
2022-10-25T11:08:07.329Z,974.55
2022-10-25T11:09:07.121Z,974.57
2022-10-25T11:10:07.075Z,974.57
2022-10-25T11:11:07.088Z,974.57
2022-10-25T11:12:07.049Z,974.54
2022-10-25T11:13:07.307Z,974.52
2022-10-25T11:14:07.013Z,974.53
2022-10-25T11:15:07.003Z,974.53
2022-10-25T11:16:07.068Z,974.47
2022-10-25T11:17:06.982Z,974.52
2022-10-25T11:18:07.242Z,974.49
2022-10-25T11:19:06.942Z,974.47
2022-10-25T11:20:06.949Z,974.44
2022-10-25T11:21:07.013Z,974.45
2022-10-25T11:22:06.908Z,974.41
2022-10-25T11:23:07.409Z,974.42
2022-10-25T11:24:06.889Z,974.42
2022-10-25T11:25:06.868Z,974.40
2022-10-25T11:26:06.855Z,974.41
2022-10-25T11:27:06.848Z,974.41
2022-10-25T11:28:07.075Z,974.32
2022-10-25T11:29:06.826Z,974.36
2022-10-25T11:30:06.805Z,974.34
2022-10-25T11:31:06.834Z,974.31
2022-10-25T11:32:06.775Z,974.34
2022-10-25T11:33:07.014Z,974.34
2022-10-25T11:34:09.226Z,974.35
2022-10-25T11:35:06.888Z,974.36
2022-10-25T11:36:06.723Z,974.33
2022-10-25T11:37:06.730Z,974.33
2022-10-25T11:38:06.952Z,974.33
2022-10-25T11:39:06.681Z,974.32
2022-10-25T11:40:06.682Z,974.27
2022-10-25T11:41:06.750Z,974.26
2022-10-25T11:42:06.641Z,974.21
2022-10-25T11:43:06.871Z,974.25
2022-10-25T11:44:06.658Z,974.21
2022-10-25T11:45:06.609Z,974.20
2022-10-25T11:46:06.734Z,974.18
2022-10-25T11:47:06.599Z,974.17
2022-10-25T11:48:06.800Z,974.18
2022-10-25T11:49:07.659Z,974.15
2022-10-25T11:50:06.539Z,974.08
2022-10-25T11:51:06.536Z,974.07
2022-10-25T11:52:06.540Z,974.05
2022-10-25T11:53:06.548Z,974.05
2022-10-25T11:54:06.498Z,974.03
2022-10-25T11:55:06.480Z,974.07
2022-10-25T11:56:06.509Z,974.03
2022-10-25T11:57:07.253Z,974.05
2022-10-25T11:58:08.117Z,974.02
2022-10-25T11:59:06.423Z,974.04
2022-10-25T12:00:06.552Z,974.02
2022-10-25T12:01:07.399Z,974.02
2022-10-25T12:02:07.334Z,973.97
2022-10-25T12:03:06.706Z,973.95
2022-10-25T12:04:06.359Z,974.00
2022-10-25T12:05:06.353Z,974.01
2022-10-25T12:06:06.553Z,974.00
2022-10-25T12:07:06.366Z,974.03
2022-10-25T12:08:07.409Z,974.01
2022-10-25T12:09:06.321Z,973.94
2022-10-25T12:10:07.205Z,973.97
2022-10-25T12:11:06.393Z,973.94
2022-10-25T12:12:07.387Z,973.94
2022-10-25T12:13:06.489Z,973.93
2022-10-25T12:14:06.498Z,973.94
2022-10-25T12:15:06.226Z,973.97
2022-10-25T12:16:06.207Z,973.95
2022-10-25T12:17:06.195Z,973.92
2022-10-25T12:18:06.178Z,973.93
2022-10-25T12:19:06.416Z,973.89
2022-10-25T12:20:06.165Z,973.88
2022-10-25T12:21:06.162Z,973.89
2022-10-25T12:22:06.145Z,973.88
2022-10-25T12:23:06.175Z,973.89
2022-10-25T12:24:06.336Z,973.88
2022-10-25T12:25:06.099Z,973.86
2022-10-25T12:26:07.173Z,973.81
2022-10-25T12:27:06.073Z,973.83
2022-10-25T12:28:06.061Z,973.82
2022-10-25T12:29:06.376Z,973.81
2022-10-25T12:30:06.089Z,973.81
2022-10-25T12:31:06.117Z,973.81
2022-10-25T12:32:07.333Z,973.78
2022-10-25T12:33:06.028Z,973.74